sensor_id;sensor_type;location;lat;lon;timestamp;P1;durP1;ratioP1;P2;durP2;ratioP2
22219;SDS011;11279;48.364;10.904;2024-01-30T00:00:40;26.97;;;16.17;;
22219;SDS011;11279;48.364;10.904;2024-01-30T00:01:40;30.53;;;16.83;;
22219;SDS011;11279;48.364;10.904;2024-01-30T00:02:41;29.17;;;15.73;;
22219;SDS011;11279;48.364;10.904;2024-01-30T00:03:43;30.98;;;16.73;;
22219;SDS011;11279;48.364;10.904;2024-01-30T00:04:43;31.20;;;16.87;;
22219;SDS011;11279;48.364;10.904;2024-01-30T00:05:44;30.87;;;17.67;;
22219;SDS011;11279;48.364;10.904;2024-01-30T00:06:44;34.30;;;17.37;;
22219;SDS011;11279;48.364;10.904;2024-01-30T00:07:45;32.63;;;18.27;;
22219;SDS011;11279;48.364;10.904;2024-01-30T00:08:45;36.17;;;18.53;;
22219;SDS011;11279;48.364;10.904;2024-01-30T00:09:48;32.25;;;17.48;;
22219;SDS011;11279;48.364;10.904;2024-01-30T00:10:49;26.37;;;16.13;;
22219;SDS011;11279;48.364;10.904;2024-01-30T00:11:50;33.50;;;17.30;;
22219;SDS011;11279;48.364;10.904;2024-01-30T00:12:51;32.22;;;16.90;;
22219;SDS011;11279;48.364;10.904;2024-01-30T00:13:52;29.83;;;16.97;;
22219;SDS011;11279;48.364;10.904;2024-01-30T00:14:52;31.40;;;17.88;;
22219;SDS011;11279;48.364;10.904;2024-01-30T00:15:53;33.50;;;18.10;;
22219;SDS011;11279;48.364;10.904;2024-01-30T00:16:53;32.17;;;17.40;;
22219;SDS011;11279;48.364;10.904;2024-01-30T00:17:54;31.07;;;18.13;;
22219;SDS011;11279;48.364;10.904;2024-01-30T00:18:55;37.17;;;18.30;;
22219;SDS011;11279;48.364;10.904;2024-01-30T00:19:55;33.10;;;18.30;;
22219;SDS011;11279;48.364;10.904;2024-01-30T00:20:56;34.43;;;18.17;;
22219;SDS011;11279;48.364;10.904;2024-01-30T00:21:56;33.17;;;17.93;;
22219;SDS011;11279;48.364;10.904;2024-01-30T00:22:57;33.07;;;18.20;;
22219;SDS011;11279;48.364;10.904;2024-01-30T00:23:57;34.70;;;18.33;;
22219;SDS011;11279;48.364;10.904;2024-01-30T00:24:57;32.83;;;17.73;;
22219;SDS011;11279;48.364;10.904;2024-01-30T00:25:58;33.43;;;18.60;;
22219;SDS011;11279;48.364;10.904;2024-01-30T00:26:58;30.80;;;19.00;;
22219;SDS011;11279;48.364;10.904;2024-01-30T00:27:59;35.87;;;19.10;;
22219;SDS011;11279;48.364;10.904;2024-01-30T00:28:59;38.23;;;20.23;;
22219;SDS011;11279;48.364;10.904;2024-01-30T00:30:00;30.70;;;18.30;;
22219;SDS011;11279;48.364;10.904;2024-01-30T00:31:00;34.00;;;18.20;;
22219;SDS011;11279;48.364;10.904;2024-01-30T00:32:01;30.03;;;16.80;;
22219;SDS011;11279;48.364;10.904;2024-01-30T00:33:01;33.87;;;17.90;;
22219;SDS011;11279;48.364;10.904;2024-01-30T00:34:01;31.60;;;17.93;;
22219;SDS011;11279;48.364;10.904;2024-01-30T00:35:02;31.17;;;17.87;;
22219;SDS011;11279;48.364;10.904;2024-01-30T00:36:02;34.07;;;18.77;;
22219;SDS011;11279;48.364;10.904;2024-01-30T00:37:03;30.87;;;17.50;;
22219;SDS011;11279;48.364;10.904;2024-01-30T00:38:04;30.17;;;17.43;;
22219;SDS011;11279;48.364;10.904;2024-01-30T00:39:04;28.50;;;16.90;;
22219;SDS011;11279;48.364;10.904;2024-01-30T00:40:09;30.92;;;17.25;;
22219;SDS011;11279;48.364;10.904;2024-01-30T00:41:17;31.17;;;17.98;;
22219;SDS011;11279;48.364;10.904;2024-01-30T00:42:17;32.40;;;17.45;;
22219;SDS011;11279;48.364;10.904;2024-01-30T00:43:18;32.00;;;17.00;;
22219;SDS011;11279;48.364;10.904;2024-01-30T00:44:18;31.97;;;17.87;;
22219;SDS011;11279;48.364;10.904;2024-01-30T00:45:19;33.60;;;17.77;;
22219;SDS011;11279;48.364;10.904;2024-01-30T00:46:19;31.40;;;16.60;;
22219;SDS011;11279;48.364;10.904;2024-01-30T00:47:19;31.63;;;16.83;;
22219;SDS011;11279;48.364;10.904;2024-01-30T00:48:20;31.57;;;17.27;;
22219;SDS011;11279;48.364;10.904;2024-01-30T00:49:20;31.40;;;17.13;;
22219;SDS011;11279;48.364;10.904;2024-01-30T00:50:21;29.30;;;16.30;;
22219;SDS011;11279;48.364;10.904;2024-01-30T00:51:21;34.10;;;17.57;;
22219;SDS011;11279;48.364;10.904;2024-01-30T00:52:22;34.43;;;16.60;;
22219;SDS011;11279;48.364;10.904;2024-01-30T00:53:22;28.37;;;16.67;;
22219;SDS011;11279;48.364;10.904;2024-01-30T00:54:22;30.10;;;17.40;;
22219;SDS011;11279;48.364;10.904;2024-01-30T00:55:23;29.17;;;16.93;;
22219;SDS011;11279;48.364;10.904;2024-01-30T00:56:23;28.37;;;15.77;;
22219;SDS011;11279;48.364;10.904;2024-01-30T00:57:24;38.97;;;16.03;;
22219;SDS011;11279;48.364;10.904;2024-01-30T00:58:25;25.93;;;16.17;;
22219;SDS011;11279;48.364;10.904;2024-01-30T00:59:25;25.97;;;15.93;;
22219;SDS011;11279;48.364;10.904;2024-01-30T01:00:25;32.07;;;16.10;;
22219;SDS011;11279;48.364;10.904;2024-01-30T01:01:29;32.22;;;15.85;;
22219;SDS011;11279;48.364;10.904;2024-01-30T01:02:29;26.90;;;16.00;;
22219;SDS011;11279;48.364;10.904;2024-01-30T01:03:29;28.20;;;15.53;;
22219;SDS011;11279;48.364;10.904;2024-01-30T01:04:30;26.63;;;15.43;;
22219;SDS011;11279;48.364;10.904;2024-01-30T01:05:30;27.50;;;14.70;;
22219;SDS011;11279;48.364;10.904;2024-01-30T01:06:31;25.47;;;15.23;;
22219;SDS011;11279;48.364;10.904;2024-01-30T01:07:31;26.43;;;15.33;;
22219;SDS011;11279;48.364;10.904;2024-01-30T01:08:32;24.47;;;14.33;;
22219;SDS011;11279;48.364;10.904;2024-01-30T01:09:32;28.13;;;14.97;;
22219;SDS011;11279;48.364;10.904;2024-01-30T01:10:32;29.50;;;15.47;;
22219;SDS011;11279;48.364;10.904;2024-01-30T01:11:33;28.30;;;15.43;;
22219;SDS011;11279;48.364;10.904;2024-01-30T01:12:33;24.70;;;15.13;;
22219;SDS011;11279;48.364;10.904;2024-01-30T01:13:34;25.93;;;15.80;;
22219;SDS011;11279;48.364;10.904;2024-01-30T01:14:34;26.67;;;15.33;;
22219;SDS011;11279;48.364;10.904;2024-01-30T01:15:36;26.48;;;14.68;;
22219;SDS011;11279;48.364;10.904;2024-01-30T01:16:37;26.00;;;15.75;;
22219;SDS011;11279;48.364;10.904;2024-01-30T01:17:38;33.10;;;16.57;;
22219;SDS011;11279;48.364;10.904;2024-01-30T01:18:38;25.95;;;15.95;;
22219;SDS011;11279;48.364;10.904;2024-01-30T01:19:39;29.93;;;16.30;;
22219;SDS011;11279;48.364;10.904;2024-01-30T01:20:39;32.80;;;15.43;;
22219;SDS011;11279;48.364;10.904;2024-01-30T01:21:40;29.83;;;16.07;;
22219;SDS011;11279;48.364;10.904;2024-01-30T01:22:40;28.17;;;15.13;;
22219;SDS011;11279;48.364;10.904;2024-01-30T01:23:41;27.08;;;15.38;;
22219;SDS011;11279;48.364;10.904;2024-01-30T01:24:42;29.80;;;15.50;;
22219;SDS011;11279;48.364;10.904;2024-01-30T01:25:42;27.47;;;15.43;;
22219;SDS011;11279;48.364;10.904;2024-01-30T01:26:42;27.77;;;16.33;;
22219;SDS011;11279;48.364;10.904;2024-01-30T01:27:43;29.77;;;17.03;;
22219;SDS011;11279;48.364;10.904;2024-01-30T01:28:44;26.52;;;14.65;;
22219;SDS011;11279;48.364;10.904;2024-01-30T01:29:45;26.40;;;15.30;;
22219;SDS011;11279;48.364;10.904;2024-01-30T01:30:45;26.90;;;15.10;;
22219;SDS011;11279;48.364;10.904;2024-01-30T01:31:46;27.20;;;15.20;;
22219;SDS011;11279;48.364;10.904;2024-01-30T01:32:49;29.53;;;15.67;;
22219;SDS011;11279;48.364;10.904;2024-01-30T01:33:56;40.03;;;16.55;;
22219;SDS011;11279;48.364;10.904;2024-01-30T01:34:57;25.97;;;14.47;;
22219;SDS011;11279;48.364;10.904;2024-01-30T01:35:57;25.90;;;15.43;;
22219;SDS011;11279;48.364;10.904;2024-01-30T01:36:58;25.03;;;14.63;;
22219;SDS011;11279;48.364;10.904;2024-01-30T01:37:58;22.20;;;14.60;;
22219;SDS011;11279;48.364;10.904;2024-01-30T01:39:00;24.67;;;14.50;;
22219;SDS011;11279;48.364;10.904;2024-01-30T01:40:00;25.67;;;14.60;;
22219;SDS011;11279;48.364;10.904;2024-01-30T01:41:01;25.93;;;15.13;;
22219;SDS011;11279;48.364;10.904;2024-01-30T01:42:01;24.93;;;13.70;;
22219;SDS011;11279;48.364;10.904;2024-01-30T01:43:03;26.20;;;14.37;;
22219;SDS011;11279;48.364;10.904;2024-01-30T01:44:05;25.23;;;14.73;;
22219;SDS011;11279;48.364;10.904;2024-01-30T01:45:05;26.17;;;14.50;;
22219;SDS011;11279;48.364;10.904;2024-01-30T01:46:06;21.53;;;13.00;;
22219;SDS011;11279;48.364;10.904;2024-01-30T01:47:07;24.73;;;13.55;;
22219;SDS011;11279;48.364;10.904;2024-01-30T01:48:07;24.20;;;14.03;;
22219;SDS011;11279;48.364;10.904;2024-01-30T01:49:09;24.45;;;14.25;;
22219;SDS011;11279;48.364;10.904;2024-01-30T01:50:09;25.70;;;14.63;;
22219;SDS011;11279;48.364;10.904;2024-01-30T01:51:10;25.53;;;14.50;;
22219;SDS011;11279;48.364;10.904;2024-01-30T01:52:10;25.10;;;14.53;;
22219;SDS011;11279;48.364;10.904;2024-01-30T01:53:11;24.00;;;14.30;;
22219;SDS011;11279;48.364;10.904;2024-01-30T01:54:12;21.45;;;13.23;;
22219;SDS011;11279;48.364;10.904;2024-01-30T01:55:14;24.65;;;13.50;;
22219;SDS011;11279;48.364;10.904;2024-01-30T01:56:15;25.50;;;13.77;;
22219;SDS011;11279;48.364;10.904;2024-01-30T01:57:15;23.50;;;13.63;;
22219;SDS011;11279;48.364;10.904;2024-01-30T01:58:16;26.93;;;14.40;;
22219;SDS011;11279;48.364;10.904;2024-01-30T01:59:16;24.07;;;13.53;;
22219;SDS011;11279;48.364;10.904;2024-01-30T02:00:18;25.85;;;14.50;;
22219;SDS011;11279;48.364;10.904;2024-01-30T02:01:19;25.65;;;14.30;;
22219;SDS011;11279;48.364;10.904;2024-01-30T02:02:20;25.45;;;14.55;;
22219;SDS011;11279;48.364;10.904;2024-01-30T02:03:22;27.80;;;14.57;;
22219;SDS011;11279;48.364;10.904;2024-01-30T02:04:23;24.30;;;14.07;;
22219;SDS011;11279;48.364;10.904;2024-01-30T02:05:23;25.33;;;14.53;;
22219;SDS011;11279;48.364;10.904;2024-01-30T02:06:25;23.30;;;14.30;;
22219;SDS011;11279;48.364;10.904;2024-01-30T02:07:27;24.38;;;14.63;;
22219;SDS011;11279;48.364;10.904;2024-01-30T02:08:28;26.38;;;13.95;;
22219;SDS011;11279;48.364;10.904;2024-01-30T02:09:28;25.70;;;13.50;;
22219;SDS011;11279;48.364;10.904;2024-01-30T02:10:29;23.30;;;13.50;;
22219;SDS011;11279;48.364;10.904;2024-01-30T02:11:29;25.37;;;14.10;;
22219;SDS011;11279;48.364;10.904;2024-01-30T02:12:29;25.03;;;13.93;;
22219;SDS011;11279;48.364;10.904;2024-01-30T02:13:30;27.03;;;14.40;;
22219;SDS011;11279;48.364;10.904;2024-01-30T02:14:30;26.83;;;14.10;;
22219;SDS011;11279;48.364;10.904;2024-01-30T02:15:31;26.17;;;14.17;;
22219;SDS011;11279;48.364;10.904;2024-01-30T02:16:32;21.93;;;12.97;;
22219;SDS011;11279;48.364;10.904;2024-01-30T02:17:32;23.63;;;13.57;;
22219;SDS011;11279;48.364;10.904;2024-01-30T02:18:33;23.13;;;14.50;;
22219;SDS011;11279;48.364;10.904;2024-01-30T02:19:33;25.70;;;13.33;;
22219;SDS011;11279;48.364;10.904;2024-01-30T02:20:34;25.47;;;13.37;;
22219;SDS011;11279;48.364;10.904;2024-01-30T02:21:35;25.45;;;14.10;;
22219;SDS011;11279;48.364;10.904;2024-01-30T02:22:35;25.93;;;13.37;;
22219;SDS011;11279;48.364;10.904;2024-01-30T02:23:36;25.20;;;13.17;;
22219;SDS011;11279;48.364;10.904;2024-01-30T02:24:38;24.67;;;13.02;;
22219;SDS011;11279;48.364;10.904;2024-01-30T02:25:41;24.73;;;13.20;;
22219;SDS011;11279;48.364;10.904;2024-01-30T02:26:44;23.92;;;13.02;;
22219;SDS011;11279;48.364;10.904;2024-01-30T02:27:44;22.90;;;13.50;;
22219;SDS011;11279;48.364;10.904;2024-01-30T02:28:45;21.87;;;13.00;;
22219;SDS011;11279;48.364;10.904;2024-01-30T02:29:45;23.13;;;13.00;;
22219;SDS011;11279;48.364;10.904;2024-01-30T02:30:46;20.63;;;12.53;;
22219;SDS011;11279;48.364;10.904;2024-01-30T02:31:46;24.27;;;13.00;;
22219;SDS011;11279;48.364;10.904;2024-01-30T02:32:47;22.73;;;13.67;;
22219;SDS011;11279;48.364;10.904;2024-01-30T02:33:47;22.00;;;13.00;;
22219;SDS011;11279;48.364;10.904;2024-01-30T02:34:48;21.70;;;13.03;;
22219;SDS011;11279;48.364;10.904;2024-01-30T02:35:48;22.93;;;13.20;;
22219;SDS011;11279;48.364;10.904;2024-01-30T02:36:48;24.20;;;13.83;;
22219;SDS011;11279;48.364;10.904;2024-01-30T02:37:49;25.43;;;13.80;;
22219;SDS011;11279;48.364;10.904;2024-01-30T02:38:49;23.10;;;13.40;;
22219;SDS011;11279;48.364;10.904;2024-01-30T02:39:50;23.30;;;13.83;;
22219;SDS011;11279;48.364;10.904;2024-01-30T02:40:50;25.77;;;13.20;;
22219;SDS011;11279;48.364;10.904;2024-01-30T02:41:51;23.43;;;13.17;;
22219;SDS011;11279;48.364;10.904;2024-01-30T02:42:51;26.47;;;13.40;;
22219;SDS011;11279;48.364;10.904;2024-01-30T02:43:51;24.67;;;13.40;;
22219;SDS011;11279;48.364;10.904;2024-01-30T02:44:52;23.43;;;13.83;;
22219;SDS011;11279;48.364;10.904;2024-01-30T02:45:52;24.03;;;13.57;;
22219;SDS011;11279;48.364;10.904;2024-01-30T02:46:53;25.60;;;13.87;;
22219;SDS011;11279;48.364;10.904;2024-01-30T02:47:54;24.40;;;13.48;;
22219;SDS011;11279;48.364;10.904;2024-01-30T02:48:54;24.70;;;13.50;;
22219;SDS011;11279;48.364;10.904;2024-01-30T02:49:55;20.23;;;12.57;;
22219;SDS011;11279;48.364;10.904;2024-01-30T02:50:55;25.20;;;13.23;;
22219;SDS011;11279;48.364;10.904;2024-01-30T02:51:56;25.35;;;12.30;;
22219;SDS011;11279;48.364;10.904;2024-01-30T02:52:57;24.13;;;13.20;;
22219;SDS011;11279;48.364;10.904;2024-01-30T02:53:57;23.27;;;12.90;;
22219;SDS011;11279;48.364;10.904;2024-01-30T02:54:58;22.00;;;13.13;;
22219;SDS011;11279;48.364;10.904;2024-01-30T02:55:58;23.67;;;13.63;;
22219;SDS011;11279;48.364;10.904;2024-01-30T02:56:58;21.63;;;12.70;;
22219;SDS011;11279;48.364;10.904;2024-01-30T02:57:59;21.33;;;12.07;;
22219;SDS011;11279;48.364;10.904;2024-01-30T02:58:59;26.10;;;12.77;;
22219;SDS011;11279;48.364;10.904;2024-01-30T03:00:00;22.30;;;12.00;;
22219;SDS011;11279;48.364;10.904;2024-01-30T03:01:00;21.83;;;13.17;;
22219;SDS011;11279;48.364;10.904;2024-01-30T03:02:01;21.90;;;12.67;;
22219;SDS011;11279;48.364;10.904;2024-01-30T03:03:01;21.90;;;12.57;;
22219;SDS011;11279;48.364;10.904;2024-01-30T03:04:02;21.67;;;12.30;;
22219;SDS011;11279;48.364;10.904;2024-01-30T03:05:02;25.00;;;12.80;;
22219;SDS011;11279;48.364;10.904;2024-01-30T03:06:05;22.90;;;12.98;;
22219;SDS011;11279;48.364;10.904;2024-01-30T03:07:05;19.67;;;11.53;;
22219;SDS011;11279;48.364;10.904;2024-01-30T03:08:05;22.10;;;12.20;;
22219;SDS011;11279;48.364;10.904;2024-01-30T03:09:06;20.33;;;11.93;;
22219;SDS011;11279;48.364;10.904;2024-01-30T03:10:06;21.30;;;11.47;;
22219;SDS011;11279;48.364;10.904;2024-01-30T03:11:07;20.00;;;11.43;;
22219;SDS011;11279;48.364;10.904;2024-01-30T03:12:07;21.23;;;11.93;;
22219;SDS011;11279;48.364;10.904;2024-01-30T03:13:08;22.63;;;12.50;;
22219;SDS011;11279;48.364;10.904;2024-01-30T03:14:08;23.03;;;11.70;;
22219;SDS011;11279;48.364;10.904;2024-01-30T03:15:11;20.55;;;12.73;;
22219;SDS011;11279;48.364;10.904;2024-01-30T03:16:11;21.87;;;12.10;;
22219;SDS011;11279;48.364;10.904;2024-01-30T03:17:11;21.27;;;12.43;;
22219;SDS011;11279;48.364;10.904;2024-01-30T03:18:12;23.43;;;12.50;;
22219;SDS011;11279;48.364;10.904;2024-01-30T03:19:12;29.67;;;12.97;;
22219;SDS011;11279;48.364;10.904;2024-01-30T03:20:13;23.83;;;12.93;;
22219;SDS011;11279;48.364;10.904;2024-01-30T03:21:13;20.87;;;12.57;;
22219;SDS011;11279;48.364;10.904;2024-01-30T03:22:14;28.93;;;12.97;;
22219;SDS011;11279;48.364;10.904;2024-01-30T03:23:14;23.33;;;12.23;;
22219;SDS011;11279;48.364;10.904;2024-01-30T03:24:15;19.87;;;12.43;;
22219;SDS011;11279;48.364;10.904;2024-01-30T03:25:15;23.40;;;12.57;;
22219;SDS011;11279;48.364;10.904;2024-01-30T03:26:16;20.80;;;11.57;;
22219;SDS011;11279;48.364;10.904;2024-01-30T03:27:16;24.07;;;12.60;;
22219;SDS011;11279;48.364;10.904;2024-01-30T03:28:17;20.83;;;11.30;;
22219;SDS011;11279;48.364;10.904;2024-01-30T03:29:17;22.17;;;12.00;;
22219;SDS011;11279;48.364;10.904;2024-01-30T03:30:17;21.93;;;11.40;;
22219;SDS011;11279;48.364;10.904;2024-01-30T03:31:18;21.43;;;11.97;;
22219;SDS011;11279;48.364;10.904;2024-01-30T03:32:18;20.70;;;11.97;;
22219;SDS011;11279;48.364;10.904;2024-01-30T03:33:19;19.37;;;11.13;;
22219;SDS011;11279;48.364;10.904;2024-01-30T03:34:19;24.30;;;12.27;;
22219;SDS011;11279;48.364;10.904;2024-01-30T03:35:20;23.70;;;11.80;;
22219;SDS011;11279;48.364;10.904;2024-01-30T03:36:20;19.80;;;11.10;;
22219;SDS011;11279;48.364;10.904;2024-01-30T03:37:20;22.53;;;11.50;;
22219;SDS011;11279;48.364;10.904;2024-01-30T03:38:21;19.90;;;10.67;;
22219;SDS011;11279;48.364;10.904;2024-01-30T03:39:21;20.33;;;11.17;;
22219;SDS011;11279;48.364;10.904;2024-01-30T03:40:22;24.13;;;11.50;;
22219;SDS011;11279;48.364;10.904;2024-01-30T03:41:22;20.53;;;10.63;;
22219;SDS011;11279;48.364;10.904;2024-01-30T03:42:22;19.43;;;9.87;;
22219;SDS011;11279;48.364;10.904;2024-01-30T03:43:23;19.43;;;11.23;;
22219;SDS011;11279;48.364;10.904;2024-01-30T03:44:23;20.63;;;11.27;;
22219;SDS011;11279;48.364;10.904;2024-01-30T03:45:24;17.67;;;10.33;;
22219;SDS011;11279;48.364;10.904;2024-01-30T03:46:24;18.53;;;10.57;;
22219;SDS011;11279;48.364;10.904;2024-01-30T03:47:25;20.80;;;11.07;;
22219;SDS011;11279;48.364;10.904;2024-01-30T03:48:25;17.83;;;10.07;;
22219;SDS011;11279;48.364;10.904;2024-01-30T03:49:25;19.83;;;11.10;;
22219;SDS011;11279;48.364;10.904;2024-01-30T03:50:26;22.07;;;11.53;;
22219;SDS011;11279;48.364;10.904;2024-01-30T03:51:28;19.33;;;11.25;;
22219;SDS011;11279;48.364;10.904;2024-01-30T03:52:28;17.53;;;10.30;;
22219;SDS011;11279;48.364;10.904;2024-01-30T03:53:29;20.33;;;10.93;;
22219;SDS011;11279;48.364;10.904;2024-01-30T03:54:30;20.85;;;10.15;;
22219;SDS011;11279;48.364;10.904;2024-01-30T03:55:30;20.73;;;11.10;;
22219;SDS011;11279;48.364;10.904;2024-01-30T03:56:31;18.40;;;10.70;;
22219;SDS011;11279;48.364;10.904;2024-01-30T03:57:32;19.00;;;10.40;;
22219;SDS011;11279;48.364;10.904;2024-01-30T03:58:32;17.93;;;10.27;;
22219;SDS011;11279;48.364;10.904;2024-01-30T03:59:33;19.53;;;11.10;;
22219;SDS011;11279;48.364;10.904;2024-01-30T04:00:33;20.80;;;11.43;;
22219;SDS011;11279;48.364;10.904;2024-01-30T04:01:33;20.47;;;10.07;;
22219;SDS011;11279;48.364;10.904;2024-01-30T04:02:34;22.10;;;11.67;;
22219;SDS011;11279;48.364;10.904;2024-01-30T04:03:34;21.83;;;11.00;;
22219;SDS011;11279;48.364;10.904;2024-01-30T04:04:35;18.10;;;11.10;;
22219;SDS011;11279;48.364;10.904;2024-01-30T04:05:35;21.83;;;10.50;;
22219;SDS011;11279;48.364;10.904;2024-01-30T04:06:35;17.53;;;10.43;;
22219;SDS011;11279;48.364;10.904;2024-01-30T04:07:37;17.02;;;10.00;;
22219;SDS011;11279;48.364;10.904;2024-01-30T04:08:38;22.47;;;10.33;;
22219;SDS011;11279;48.364;10.904;2024-01-30T04:09:38;15.73;;;9.47;;
22219;SDS011;11279;48.364;10.904;2024-01-30T04:10:39;19.77;;;10.33;;
22219;SDS011;11279;48.364;10.904;2024-01-30T04:11:40;18.27;;;9.73;;
22219;SDS011;11279;48.364;10.904;2024-01-30T04:12:41;17.67;;;10.18;;
22219;SDS011;11279;48.364;10.904;2024-01-30T04:13:42;16.80;;;9.50;;
22219;SDS011;11279;48.364;10.904;2024-01-30T04:14:43;18.83;;;9.93;;
22219;SDS011;11279;48.364;10.904;2024-01-30T04:15:44;14.33;;;8.60;;
22219;SDS011;11279;48.364;10.904;2024-01-30T04:16:44;18.53;;;10.37;;
22219;SDS011;11279;48.364;10.904;2024-01-30T04:17:45;20.77;;;10.37;;
22219;SDS011;11279;48.364;10.904;2024-01-30T04:18:45;18.97;;;10.00;;
22219;SDS011;11279;48.364;10.904;2024-01-30T04:19:46;16.37;;;9.70;;
22219;SDS011;11279;48.364;10.904;2024-01-30T04:20:46;19.30;;;9.67;;
22219;SDS011;11279;48.364;10.904;2024-01-30T04:21:46;15.23;;;9.47;;
22219;SDS011;11279;48.364;10.904;2024-01-30T04:22:47;14.90;;;8.93;;
22219;SDS011;11279;48.364;10.904;2024-01-30T04:23:48;16.53;;;9.27;;
22219;SDS011;11279;48.364;10.904;2024-01-30T04:24:48;18.43;;;8.70;;
22219;SDS011;11279;48.364;10.904;2024-01-30T04:25:49;15.10;;;9.03;;
22219;SDS011;11279;48.364;10.904;2024-01-30T04:26:49;17.23;;;9.27;;
22219;SDS011;11279;48.364;10.904;2024-01-30T04:27:49;17.27;;;9.60;;
22219;SDS011;11279;48.364;10.904;2024-01-30T04:28:50;18.57;;;9.23;;
22219;SDS011;11279;48.364;10.904;2024-01-30T04:29:50;16.83;;;9.73;;
22219;SDS011;11279;48.364;10.904;2024-01-30T04:30:51;16.80;;;9.10;;
22219;SDS011;11279;48.364;10.904;2024-01-30T04:31:51;16.40;;;8.67;;
22219;SDS011;11279;48.364;10.904;2024-01-30T04:32:52;17.67;;;8.70;;
22219;SDS011;11279;48.364;10.904;2024-01-30T04:33:52;16.00;;;8.87;;
22219;SDS011;11279;48.364;10.904;2024-01-30T04:34:52;16.37;;;8.83;;
22219;SDS011;11279;48.364;10.904;2024-01-30T04:35:53;18.47;;;9.27;;
22219;SDS011;11279;48.364;10.904;2024-01-30T04:36:53;16.47;;;8.93;;
22219;SDS011;11279;48.364;10.904;2024-01-30T04:37:54;13.47;;;8.03;;
22219;SDS011;11279;48.364;10.904;2024-01-30T04:38:54;16.90;;;8.80;;
22219;SDS011;11279;48.364;10.904;2024-01-30T04:39:54;16.20;;;8.10;;
22219;SDS011;11279;48.364;10.904;2024-01-30T04:40:55;13.47;;;7.73;;
22219;SDS011;11279;48.364;10.904;2024-01-30T04:41:55;16.57;;;8.67;;
22219;SDS011;11279;48.364;10.904;2024-01-30T04:42:56;16.20;;;8.70;;
22219;SDS011;11279;48.364;10.904;2024-01-30T04:43:56;17.23;;;8.40;;
22219;SDS011;11279;48.364;10.904;2024-01-30T04:44:57;16.77;;;8.27;;
22219;SDS011;11279;48.364;10.904;2024-01-30T04:45:57;17.20;;;8.63;;
22219;SDS011;11279;48.364;10.904;2024-01-30T04:46:57;14.13;;;8.33;;
22219;SDS011;11279;48.364;10.904;2024-01-30T04:48:01;15.20;;;8.55;;
22219;SDS011;11279;48.364;10.904;2024-01-30T04:49:01;14.40;;;8.33;;
22219;SDS011;11279;48.364;10.904;2024-01-30T04:50:03;17.60;;;8.75;;
22219;SDS011;11279;48.364;10.904;2024-01-30T04:51:04;14.68;;;8.02;;
22219;SDS011;11279;48.364;10.904;2024-01-30T04:52:05;15.13;;;7.47;;
22219;SDS011;11279;48.364;10.904;2024-01-30T04:53:06;14.23;;;8.38;;
22219;SDS011;11279;48.364;10.904;2024-01-30T04:54:07;14.45;;;8.23;;
22219;SDS011;11279;48.364;10.904;2024-01-30T04:55:08;15.13;;;7.57;;
22219;SDS011;11279;48.364;10.904;2024-01-30T04:56:08;16.20;;;8.83;;
22219;SDS011;11279;48.364;10.904;2024-01-30T04:57:09;17.37;;;8.37;;
22219;SDS011;11279;48.364;10.904;2024-01-30T04:58:12;15.07;;;8.40;;
22219;SDS011;11279;48.364;10.904;2024-01-30T04:59:12;15.00;;;7.80;;
22219;SDS011;11279;48.364;10.904;2024-01-30T05:00:13;14.67;;;7.63;;
22219;SDS011;11279;48.364;10.904;2024-01-30T05:01:16;15.47;;;8.07;;
22219;SDS011;11279;48.364;10.904;2024-01-30T05:02:17;14.80;;;8.45;;
22219;SDS011;11279;48.364;10.904;2024-01-30T05:03:18;18.27;;;8.60;;
22219;SDS011;11279;48.364;10.904;2024-01-30T05:04:19;16.90;;;8.30;;
22219;SDS011;11279;48.364;10.904;2024-01-30T05:05:20;15.20;;;8.27;;
22219;SDS011;11279;48.364;10.904;2024-01-30T05:06:25;14.23;;;8.23;;
22219;SDS011;11279;48.364;10.904;2024-01-30T05:07:28;16.30;;;8.27;;
22219;SDS011;11279;48.364;10.904;2024-01-30T05:08:28;16.47;;;8.43;;
22219;SDS011;11279;48.364;10.904;2024-01-30T05:09:29;15.53;;;7.77;;
22219;SDS011;11279;48.364;10.904;2024-01-30T05:10:29;19.33;;;8.50;;
22219;SDS011;11279;48.364;10.904;2024-01-30T05:11:30;15.60;;;8.13;;
22219;SDS011;11279;48.364;10.904;2024-01-30T05:12:31;15.88;;;8.15;;
22219;SDS011;11279;48.364;10.904;2024-01-30T05:13:31;16.57;;;7.73;;
22219;SDS011;11279;48.364;10.904;2024-01-30T05:14:32;17.53;;;8.10;;
22219;SDS011;11279;48.364;10.904;2024-01-30T05:15:32;15.43;;;8.03;;
22219;SDS011;11279;48.364;10.904;2024-01-30T05:16:33;15.73;;;8.00;;
22219;SDS011;11279;48.364;10.904;2024-01-30T05:17:33;14.57;;;8.40;;
22219;SDS011;11279;48.364;10.904;2024-01-30T05:18:33;17.13;;;7.60;;
22219;SDS011;11279;48.364;10.904;2024-01-30T05:19:34;14.83;;;7.60;;
22219;SDS011;11279;48.364;10.904;2024-01-30T05:20:34;13.40;;;7.50;;
22219;SDS011;11279;48.364;10.904;2024-01-30T05:21:35;16.03;;;8.00;;
22219;SDS011;11279;48.364;10.904;2024-01-30T05:22:35;14.20;;;7.50;;
22219;SDS011;11279;48.364;10.904;2024-01-30T05:23:36;14.63;;;8.00;;
22219;SDS011;11279;48.364;10.904;2024-01-30T05:24:36;20.27;;;7.97;;
22219;SDS011;11279;48.364;10.904;2024-01-30T05:25:37;17.37;;;7.23;;
22219;SDS011;11279;48.364;10.904;2024-01-30T05:26:37;13.53;;;7.63;;
22219;SDS011;11279;48.364;10.904;2024-01-30T05:27:38;17.33;;;7.77;;
22219;SDS011;11279;48.364;10.904;2024-01-30T05:28:38;13.93;;;7.50;;
22219;SDS011;11279;48.364;10.904;2024-01-30T05:29:39;12.07;;;6.97;;
22219;SDS011;11279;48.364;10.904;2024-01-30T05:30:40;16.15;;;7.40;;
22219;SDS011;11279;48.364;10.904;2024-01-30T05:31:40;16.50;;;7.27;;
22219;SDS011;11279;48.364;10.904;2024-01-30T05:32:41;14.23;;;8.00;;
22219;SDS011;11279;48.364;10.904;2024-01-30T05:33:41;15.10;;;7.57;;
22219;SDS011;11279;48.364;10.904;2024-01-30T05:34:42;16.83;;;7.60;;
22219;SDS011;11279;48.364;10.904;2024-01-30T05:35:42;12.23;;;6.93;;
22219;SDS011;11279;48.364;10.904;2024-01-30T05:36:42;16.93;;;7.70;;
22219;SDS011;11279;48.364;10.904;2024-01-30T05:37:43;14.90;;;7.40;;
22219;SDS011;11279;48.364;10.904;2024-01-30T05:38:43;14.23;;;7.80;;
22219;SDS011;11279;48.364;10.904;2024-01-30T05:39:44;14.57;;;7.57;;
22219;SDS011;11279;48.364;10.904;2024-01-30T05:40:44;15.03;;;7.50;;
22219;SDS011;11279;48.364;10.904;2024-01-30T05:41:44;13.67;;;7.07;;
22219;SDS011;11279;48.364;10.904;2024-01-30T05:42:45;14.77;;;7.47;;
22219;SDS011;11279;48.364;10.904;2024-01-30T05:43:45;13.70;;;7.20;;
22219;SDS011;11279;48.364;10.904;2024-01-30T05:44:46;13.97;;;7.30;;
22219;SDS011;11279;48.364;10.904;2024-01-30T05:45:46;15.40;;;7.80;;
22219;SDS011;11279;48.364;10.904;2024-01-30T05:46:46;15.93;;;7.63;;
22219;SDS011;11279;48.364;10.904;2024-01-30T05:47:47;13.83;;;7.40;;
22219;SDS011;11279;48.364;10.904;2024-01-30T05:48:47;16.03;;;7.20;;
22219;SDS011;11279;48.364;10.904;2024-01-30T05:49:48;14.83;;;7.40;;
22219;SDS011;11279;48.364;10.904;2024-01-30T05:50:48;14.43;;;7.73;;
22219;SDS011;11279;48.364;10.904;2024-01-30T05:51:48;16.97;;;8.43;;